createdAt,value
2022-11-21T00:00:50.307Z,29.67
2022-11-21T00:05:56.768Z,34.25
2022-11-21T00:11:04.777Z,48.72
2022-11-21T00:16:14.848Z,57.72
2022-11-21T00:21:22.047Z,53.15
2022-11-21T00:26:29.754Z,40.90
2022-11-21T00:31:36.481Z,55.83
2022-11-21T00:36:42.814Z,64.22
2022-11-21T00:41:50.437Z,67.78
2022-11-21T00:46:56.904Z,57.53
2022-11-21T00:52:03.739Z,41.40
2022-11-21T00:57:12.121Z,44.25
2022-11-21T01:02:19.342Z,50.33
2022-11-21T01:07:26.490Z,43.35
2022-11-21T01:12:34.527Z,40.10
2022-11-21T01:17:41.075Z,41.20
2022-11-21T01:22:47.146Z,37.58
2022-11-21T01:27:55.081Z,36.20
2022-11-21T01:33:01.887Z,32.92
2022-11-21T01:38:08.263Z,34.42
2022-11-21T01:43:17.606Z,37.17
2022-11-21T01:48:29.827Z,32.92
2022-11-21T01:53:37.812Z,35.17
2022-11-21T01:58:48.054Z,33.13
2022-11-21T02:03:56.727Z,31.30
2022-11-21T02:09:03.646Z,31.77
2022-11-21T02:14:12.653Z,31.90
2022-11-21T02:19:29.587Z,29.73
2022-11-21T02:24:47.337Z,30.90
2022-11-21T02:29:55.362Z,28.23
2022-11-21T02:35:01.406Z,24.80
2022-11-21T02:40:16.069Z,28.35
2022-11-21T02:45:28.672Z,27.83
2022-11-21T02:50:37.565Z,26.92
2022-11-21T02:55:43.810Z,27.05
2022-11-21T03:00:51.498Z,27.15
2022-11-21T03:05:58.390Z,26.07
2022-11-21T03:11:04.488Z,26.95
2022-11-21T03:16:12.374Z,27.30
2022-11-21T03:21:18.896Z,27.83
2022-11-21T03:26:24.984Z,24.52
2022-11-21T03:31:32.581Z,26.80
2022-11-21T03:36:38.701Z,25.40
2022-11-21T03:41:44.928Z,27.92
2022-11-21T03:46:52.945Z,28.02
2022-11-21T03:51:59.243Z,30.33
2022-11-21T03:57:06.261Z,30.70
2022-11-21T04:02:14.386Z,29.05
2022-11-21T04:07:21.183Z,33.10
2022-11-21T04:12:27.413Z,29.15
2022-11-21T04:17:34.891Z,30.17
2022-11-21T04:22:41.029Z,26.98
2022-11-21T04:27:47.249Z,29.85
2022-11-21T04:32:55.537Z,29.55
2022-11-21T04:38:01.938Z,33.03
2022-11-21T04:43:08.904Z,34.72
2022-11-21T04:48:16.626Z,34.13
2022-11-21T04:53:22.671Z,35.78
2022-11-21T04:58:28.829Z,38.60
2022-11-21T05:03:36.970Z,34.72
2022-11-21T05:08:46.556Z,33.63
2022-11-21T05:13:55.716Z,35.67
2022-11-21T05:19:03.464Z,33.78
2022-11-21T05:24:10.208Z,35.80
2022-11-21T05:29:16.459Z,37.53
2022-11-21T05:34:24.652Z,35.85
2022-11-21T05:39:30.776Z,34.72
2022-11-21T05:44:36.787Z,38.00
2022-11-21T05:49:44.553Z,41.45
2022-11-21T05:54:51.089Z,40.20
2022-11-21T05:59:57.389Z,49.35
2022-11-21T06:05:05.586Z,45.83
2022-11-21T06:10:12.004Z,45.20
2022-11-21T06:15:19.077Z,47.80
2022-11-21T06:20:26.828Z,40.03
2022-11-21T06:25:33.215Z,39.27
2022-11-21T06:30:40.139Z,35.88
2022-11-21T06:35:47.748Z,37.58
2022-11-21T06:40:53.833Z,38.33
2022-11-21T06:46:00.484Z,35.30
2022-11-21T06:51:10.349Z,36.45
2022-11-21T06:56:17.811Z,37.58
2022-11-21T07:01:24.966Z,39.10
2022-11-21T07:06:32.880Z,38.05
2022-11-21T07:11:38.962Z,33.60
2022-11-21T07:16:44.938Z,37.95
2022-11-21T07:21:52.464Z,42.75
2022-11-21T07:26:58.575Z,38.88
2022-11-21T07:32:04.641Z,45.50
2022-11-21T07:37:12.439Z,42.75
2022-11-21T07:42:18.669Z,43.20
2022-11-21T07:47:24.811Z,33.20
2022-11-21T07:52:32.336Z,28.10
2022-11-21T07:57:38.454Z,32.97
2022-11-21T08:02:44.758Z,29.75
2022-11-21T08:07:52.456Z,29.08
2022-11-21T08:12:58.477Z,31.60
2022-11-21T08:18:10.641Z,33.42
2022-11-21T08:23:18.193Z,34.65
2022-11-21T08:28:24.401Z,34.28
2022-11-21T08:33:30.588Z,30.52
2022-11-21T08:38:38.015Z,26.85
2022-11-21T08:43:44.541Z,30.30
2022-11-21T08:48:50.929Z,29.17
2022-11-21T08:53:58.917Z,30.15
2022-11-21T08:59:05.325Z,32.13
2022-11-21T09:04:12.592Z,31.20
2022-11-21T09:09:25.123Z,31.75
2022-11-21T09:14:49.499Z,28.45
2022-11-21T09:19:55.720Z,31.38
2022-11-21T09:25:03.618Z,32.97
2022-11-21T09:30:11.159Z,30.75
2022-11-21T09:35:17.510Z,29.10
2022-11-21T09:40:25.475Z,33.03
2022-11-21T09:45:36.713Z,28.07
2022-11-21T09:50:53.649Z,28.25
2022-11-21T09:56:07.121Z,26.30
2022-11-21T10:01:15.135Z,23.92
2022-11-21T10:06:24.307Z,20.17
2022-11-21T10:11:58.954Z,24.33
2022-11-21T10:17:20.756Z,23.05
2022-11-21T10:22:54.982Z,23.38
2022-11-21T10:28:08.299Z,22.17
2022-11-21T10:33:23.626Z,22.73
2022-11-21T10:38:30.842Z,21.90
2022-11-21T10:44:02.491Z,19.70
2022-11-21T10:49:14.888Z,20.55
2022-11-21T10:54:36.841Z,17.60
2022-11-21T11:00:01.013Z,20.20
2022-11-21T11:05:24.715Z,17.92
2022-11-21T11:10:31.998Z,15.13
2022-11-21T11:15:55.659Z,17.63
2022-11-21T11:21:21.865Z,19.55
2022-11-21T11:26:31.589Z,17.13
2022-11-21T11:31:46.357Z,17.00
2022-11-21T11:37:04.609Z,15.50
2022-11-21T11:43:12.682Z,16.00
2022-11-21T11:48:21.377Z,16.00
2022-11-21T11:53:31.653Z,15.73
2022-11-21T11:58:46.488Z,16.83
2022-11-21T12:04:00.811Z,16.42
2022-11-21T12:09:18.683Z,15.95
2022-11-21T12:15:14.039Z,16.05
2022-11-21T12:20:26.767Z,17.67
2022-11-21T12:25:39.238Z,18.75
2022-11-21T12:31:09.982Z,19.35
2022-11-21T12:36:42.202Z,21.33
2022-11-21T12:42:12.498Z,20.25
2022-11-21T12:47:58.804Z,19.83
2022-11-21T12:53:41.095Z,22.02
2022-11-21T12:58:53.618Z,22.83
2022-11-21T13:04:05.651Z,20.95
2022-11-21T13:09:19.011Z,21.67
2022-11-21T13:14:39.518Z,26.30
2022-11-21T13:19:53.755Z,26.52
2022-11-21T13:25:03.715Z,25.92
2022-11-21T13:30:27.607Z,24.23
2022-11-21T13:36:08.176Z,23.98
2022-11-21T13:42:21.087Z,25.42
2022-11-21T13:48:17.614Z,25.50
2022-11-21T13:54:18.311Z,24.75
2022-11-21T13:59:57.394Z,21.20
2022-11-21T14:05:33.862Z,20.83
2022-11-21T14:10:40.334Z,22.73
2022-11-21T14:16:07.317Z,22.33
2022-11-21T14:21:27.195Z,23.02
2022-11-21T14:26:41.563Z,21.00
2022-11-21T14:31:50.997Z,25.00
2022-11-21T14:37:00.944Z,20.55
2022-11-21T14:42:13.897Z,23.95
2022-11-21T14:47:26.730Z,23.75
2022-11-21T14:52:35.658Z,22.63
2022-11-21T14:57:44.935Z,24.00
2022-11-21T15:02:56.306Z,21.75
2022-11-21T15:08:24.346Z,22.63
2022-11-21T15:19:09.994Z,23.63
2022-11-21T15:24:29.633Z,24.92
2022-11-21T15:29:35.951Z,25.80
2022-11-21T15:34:43.728Z,27.23
2022-11-21T15:39:51.798Z,26.92
2022-11-21T15:45:03.377Z,24.98
2022-11-21T15:50:11.804Z,25.35
2022-11-21T15:55:26.460Z,25.10
2022-11-21T15:57:15.123Z,22.00
2022-11-21T16:00:32.989Z,45.00
2022-11-21T16:05:41.335Z,31.98
2022-11-21T16:10:47.837Z,24.07
2022-11-21T16:15:54.375Z,21.55
2022-11-21T16:21:11.585Z,22.50
2022-11-21T16:26:18.877Z,28.83
2022-11-21T16:31:27.606Z,29.90
2022-11-21T16:36:35.820Z,26.23
2022-11-21T16:41:45.976Z,21.55
2022-11-21T16:46:55.741Z,25.23
2022-11-21T16:52:04.992Z,24.88
2022-11-21T16:57:11.892Z,23.23
2022-11-21T17:02:18.672Z,23.48
2022-11-21T17:07:26.861Z,24.80
2022-11-21T17:12:39.337Z,23.77
2022-11-21T17:17:46.008Z,25.83
2022-11-21T17:22:54.082Z,28.20
2022-11-21T17:28:00.810Z,24.37
2022-11-21T17:33:08.254Z,25.95
2022-11-21T17:38:16.679Z,26.92
2022-11-21T17:43:24.483Z,27.88
2022-11-21T17:48:33.892Z,25.70
2022-11-21T17:53:47.175Z,28.90
2022-11-21T17:58:54.918Z,27.05
2022-11-21T18:04:08.980Z,25.90
2022-11-21T18:09:22.428Z,29.15
2022-11-21T18:14:31.760Z,28.83
2022-11-21T18:19:39.139Z,29.50
2022-11-21T18:24:47.513Z,30.58
2022-11-21T18:29:54.393Z,27.88
2022-11-21T18:35:01.774Z,28.63
2022-11-21T18:40:14.931Z,25.63
2022-11-21T18:45:22.591Z,27.38
2022-11-21T18:50:29.881Z,29.52
2022-11-21T18:55:41.437Z,29.75
2022-11-21T19:00:49.167Z,28.83
2022-11-21T19:05:57.178Z,30.63
2022-11-21T19:11:07.625Z,29.58
2022-11-21T19:16:18.362Z,27.85
2022-11-21T19:21:25.839Z,27.88
2022-11-21T19:26:35.554Z,28.08
2022-11-21T19:31:45.559Z,27.92
2022-11-21T19:36:53.843Z,27.67
2022-11-21T19:42:03.117Z,29.75
2022-11-21T19:47:12.658Z,30.10
2022-11-21T19:52:23.700Z,27.77
2022-11-21T19:57:39.300Z,26.70
2022-11-21T20:02:47.736Z,27.77
2022-11-21T20:08:17.135Z,25.75
2022-11-21T20:13:27.139Z,26.98
2022-11-21T20:18:34.725Z,28.60
2022-11-21T20:23:42.677Z,26.80
2022-11-21T20:28:52.812Z,29.08
2022-11-21T20:34:02.880Z,27.92
2022-11-21T20:39:14.635Z,28.83
2022-11-21T20:49:51.984Z,26.98
2022-11-21T20:54:58.629Z,27.13
2022-11-21T21:00:08.858Z,24.25
2022-11-21T21:05:16.211Z,26.83
2022-11-21T21:10:25.785Z,26.10
2022-11-21T21:15:35.918Z,27.70
2022-11-21T21:21:09.544Z,27.08
2022-11-21T21:26:12.925Z,24.00
2022-11-21T21:31:22.838Z,26.10
2022-11-21T21:36:30.637Z,24.33
2022-11-21T21:41:40.308Z,25.25
2022-11-21T21:46:48.573Z,25.95
2022-11-21T21:51:55.298Z,25.93
2022-11-21T21:57:02.131Z,25.05
2022-11-21T22:02:13.051Z,22.50
2022-11-21T22:07:19.847Z,28.33
2022-11-21T22:12:26.112Z,26.67
2022-11-21T22:17:34.210Z,25.88
2022-11-21T22:22:40.434Z,27.57
2022-11-21T22:27:46.715Z,22.48
2022-11-21T22:32:55.011Z,21.80
2022-11-21T22:38:03.367Z,22.67
2022-11-21T22:43:09.997Z,22.50
2022-11-21T22:48:20.260Z,23.75
2022-11-21T22:53:27.316Z,23.23
2022-11-21T22:58:37.016Z,30.23
2022-11-21T23:03:46.010Z,28.95
2022-11-21T23:08:53.143Z,24.77
2022-11-21T23:14:00.029Z,23.27
2022-11-21T23:19:08.645Z,22.42
2022-11-21T23:24:14.933Z,26.17
2022-11-21T23:29:21.437Z,25.65
2022-11-21T23:34:29.264Z,25.88
2022-11-21T23:39:35.618Z,25.50
2022-11-21T23:44:41.832Z,23.70
2022-11-21T23:49:50.306Z,21.55
2022-11-21T23:54:56.782Z,22.58
